Terminal Aerodrome Forecast
Issued by NWS

Home | Current Version | Previous Version | Text Only | Print | Product List | Glossary Off
Versions: 1 2 3 4 5 6 7 8 9 10 11 12 13 14 15 16

000
FTUS43 KOAX 311130
TAFCDR
TAF
KCDR 311130Z 3112/0112 28010KT P6SM SCT100
     FM312200 VRB05KT P6SM VCTS SCT035CB
     FM010300 VRB03KT P6SM SCT100=

USA.gov is the U.S. government's official web portal to all federal, state and local government web resources and services.